createdAt,value
2019-01-11T00:00:37.873Z,1015.21
2019-01-11T00:01:37.896Z,1015.17
2019-01-11T00:02:37.910Z,1015.14
2019-01-11T00:03:37.933Z,1015.06
2019-01-11T00:04:37.956Z,1015.09
2019-01-11T00:05:37.977Z,1015.06
2019-01-11T00:06:37.994Z,1015.10
2019-01-11T00:07:38.022Z,1015.07
2019-01-11T00:08:38.039Z,1015.08
2019-01-11T00:09:38.064Z,1015.05
2019-01-11T00:10:38.081Z,1015.02
2019-01-11T00:11:38.103Z,1015.03
2019-01-11T00:12:38.132Z,1015.00
2019-01-11T00:13:38.146Z,1014.94
2019-01-11T00:14:38.166Z,1014.92
2019-01-11T00:15:38.189Z,1014.85
2019-01-11T00:16:38.211Z,1014.82
2019-01-11T00:17:38.231Z,1014.78
2019-01-11T00:18:38.253Z,1014.77
2019-01-11T00:19:38.273Z,1014.78
2019-01-11T00:20:38.301Z,1014.73
2019-01-11T00:21:38.318Z,1014.73
2019-01-11T00:22:38.338Z,1014.71
2019-01-11T00:23:38.363Z,1014.71
2019-01-11T00:24:38.383Z,1014.68
2019-01-11T00:25:38.403Z,1014.73
2019-01-11T00:26:38.422Z,1014.66
2019-01-11T00:27:38.445Z,1014.59
2019-01-11T00:28:38.469Z,1014.60
2019-01-11T00:29:38.489Z,1014.51
2019-01-11T00:30:38.510Z,1014.51
2019-01-11T00:31:38.530Z,1014.50
2019-01-11T00:32:38.555Z,1014.49
2019-01-11T00:33:38.572Z,1014.48
2019-01-11T00:34:38.596Z,1014.43
2019-01-11T00:35:38.615Z,1014.47
2019-01-11T00:36:38.635Z,1014.44
2019-01-11T00:37:38.658Z,1014.38
2019-01-11T00:38:38.677Z,1014.32
2019-01-11T00:39:38.715Z,1014.32
2019-01-11T00:40:38.721Z,1014.32
2019-01-11T00:41:38.746Z,1014.31
2019-01-11T00:42:38.762Z,1014.35
2019-01-11T00:43:38.786Z,1014.32
2019-01-11T00:44:38.809Z,1014.37
2019-01-11T00:45:38.828Z,1014.36
2019-01-11T00:46:38.850Z,1014.27
2019-01-11T00:47:38.875Z,1014.31
2019-01-11T00:48:38.890Z,1014.22
2019-01-11T00:49:38.912Z,1014.21
2019-01-11T00:50:38.933Z,1014.13
2019-01-11T00:51:38.952Z,1014.13
2019-01-11T00:52:38.975Z,1014.04
2019-01-11T00:53:38.995Z,1014.10
2019-01-11T00:54:39.020Z,1014.03
2019-01-11T00:55:39.039Z,1014.03
2019-01-11T00:56:39.058Z,1013.99
2019-01-11T00:57:39.089Z,1013.98
2019-01-11T00:58:39.102Z,1013.96
2019-01-11T00:59:39.122Z,1013.93
2019-01-11T01:00:39.148Z,1013.91
2019-01-11T01:01:39.164Z,1013.89
2019-01-11T01:02:39.186Z,1013.87
2019-01-11T01:03:39.212Z,1013.86
2019-01-11T01:04:39.228Z,1013.87
2019-01-11T01:05:39.252Z,1013.86
2019-01-11T01:06:39.274Z,1013.80
2019-01-11T01:07:39.290Z,1013.75
2019-01-11T01:08:39.312Z,1013.75
2019-01-11T01:09:39.332Z,1013.72
2019-01-11T01:10:39.355Z,1013.69
2019-01-11T01:11:39.376Z,1013.71
2019-01-11T01:12:39.395Z,1013.67
2019-01-11T01:13:39.418Z,1013.72
2019-01-11T01:14:39.437Z,1013.65
2019-01-11T01:15:39.462Z,1013.60
2019-01-11T01:16:39.481Z,1013.63
2019-01-11T01:17:39.504Z,1013.60
2019-01-11T01:18:39.522Z,1013.64
2019-01-11T01:19:39.547Z,1013.59
2019-01-11T01:20:39.567Z,1013.50
2019-01-11T01:21:39.586Z,1013.53
2019-01-11T01:22:39.610Z,1013.55
2019-01-11T01:23:39.627Z,1013.52
2019-01-11T01:24:39.651Z,1013.55
2019-01-11T01:25:39.670Z,1013.51
2019-01-11T01:26:39.691Z,1013.50
2019-01-11T01:27:39.712Z,1013.46
2019-01-11T01:28:39.737Z,1013.53
2019-01-11T01:29:39.755Z,1013.46
2019-01-11T01:30:39.775Z,1013.45
2019-01-11T01:31:39.795Z,1013.42
2019-01-11T01:32:39.818Z,1013.39
2019-01-11T01:33:39.842Z,1013.37
2019-01-11T01:34:39.859Z,1013.34
2019-01-11T01:35:39.884Z,1013.32
2019-01-11T01:36:39.901Z,1013.24
2019-01-11T01:37:39.923Z,1013.27
2019-01-11T01:38:39.943Z,1013.24
2019-01-11T01:39:39.970Z,1013.26
2019-01-11T01:40:39.986Z,1013.23
2019-01-11T01:41:40.010Z,1013.19
2019-01-11T01:42:40.028Z,1013.19
2019-01-11T01:43:40.050Z,1013.19
2019-01-11T01:44:40.071Z,1013.16
2019-01-11T01:45:40.092Z,1013.12
2019-01-11T01:46:40.115Z,1013.09
2019-01-11T01:47:40.179Z,1013.08
2019-01-11T01:48:40.157Z,1013.07
2019-01-11T01:49:40.179Z,1013.07
2019-01-11T01:50:40.199Z,1013.01
2019-01-11T01:51:40.219Z,1012.97
2019-01-11T01:52:40.240Z,1012.95
2019-01-11T01:53:40.260Z,1012.94
2019-01-11T01:54:40.282Z,1012.89
2019-01-11T01:55:40.302Z,1012.83
2019-01-11T01:56:40.325Z,1012.85
2019-01-11T01:57:40.347Z,1012.83
2019-01-11T01:58:40.365Z,1012.80
2019-01-11T01:59:40.388Z,1012.76
2019-01-11T02:00:40.410Z,1012.73
2019-01-11T02:01:40.433Z,1012.66
2019-01-11T02:02:40.451Z,1012.70
2019-01-11T02:03:40.474Z,1012.62
2019-01-11T02:04:40.494Z,1012.67
2019-01-11T02:05:40.517Z,1012.65
2019-01-11T02:06:40.536Z,1012.55
2019-01-11T02:07:40.557Z,1012.55
2019-01-11T02:08:40.578Z,1012.49
2019-01-11T02:09:40.604Z,1012.46
2019-01-11T02:10:40.619Z,1012.46
2019-01-11T02:11:40.640Z,1012.41
2019-01-11T02:12:40.663Z,1012.42
2019-01-11T02:13:40.684Z,1012.32
2019-01-11T02:14:40.708Z,1012.33
2019-01-11T02:15:40.726Z,1012.36
2019-01-11T02:16:40.747Z,1012.29
2019-01-11T02:17:40.770Z,1012.30
2019-01-11T02:18:40.788Z,1012.26
2019-01-11T02:19:40.810Z,1012.23
2019-01-11T02:20:40.829Z,1012.18
2019-01-11T02:21:40.853Z,1012.16
2019-01-11T02:22:40.875Z,1012.11
2019-01-11T02:23:40.902Z,1012.14
2019-01-11T02:24:40.916Z,1012.05
2019-01-11T02:25:46.196Z,1012.04
2019-01-11T02:26:40.958Z,1012.03
2019-01-11T02:27:40.980Z,1012.00
2019-01-11T02:28:41.002Z,1011.98
2019-01-11T02:29:41.021Z,1011.99
2019-01-11T02:30:41.043Z,1011.87
2019-01-11T02:31:41.063Z,1011.90
2019-01-11T02:32:41.087Z,1011.89
2019-01-11T02:33:41.107Z,1011.82
2019-01-11T02:34:41.125Z,1011.79
2019-01-11T02:35:41.150Z,1011.73
2019-01-11T02:36:41.173Z,1011.71
2019-01-11T02:37:41.191Z,1011.69
2019-01-11T02:38:41.212Z,1011.73
2019-01-11T02:39:41.236Z,1011.70
2019-01-11T02:40:41.258Z,1011.65
2019-01-11T02:41:41.279Z,1011.67
2019-01-11T02:42:41.296Z,1011.63
2019-01-11T02:43:41.318Z,1011.60
2019-01-11T02:44:41.343Z,1011.55
2019-01-11T02:45:41.369Z,1011.50
2019-01-11T02:46:41.396Z,1011.51
2019-01-11T02:47:41.403Z,1011.50
2019-01-11T02:48:41.423Z,1011.46
2019-01-11T02:49:41.444Z,1011.42
2019-01-11T02:50:41.470Z,1011.45
2019-01-11T02:51:41.486Z,1011.38
2019-01-11T02:52:41.515Z,1011.35
2019-01-11T02:53:41.532Z,1011.38
2019-01-11T02:54:41.551Z,1011.24
2019-01-11T02:55:41.571Z,1011.23
2019-01-11T02:56:41.593Z,1011.23
2019-01-11T02:57:41.617Z,1011.10
2019-01-11T02:58:41.634Z,1011.13
2019-01-11T02:59:41.655Z,1011.07
2019-01-11T03:00:41.683Z,1011.04
2019-01-11T03:01:41.699Z,1011.00
2019-01-11T03:02:41.718Z,1011.05
2019-01-11T03:03:41.740Z,1011.04
2019-01-11T03:04:41.759Z,1011.02
2019-01-11T03:05:41.781Z,1011.03
2019-01-11T03:06:41.804Z,1011.04
2019-01-11T03:07:41.826Z,1011.03
2019-01-11T03:08:41.847Z,1010.94
2019-01-11T03:09:41.869Z,1010.91
2019-01-11T03:10:41.886Z,1010.93
2019-01-11T03:11:41.909Z,1010.83
2019-01-11T03:12:41.932Z,1010.88
2019-01-11T03:13:41.950Z,1010.82
2019-01-11T03:14:41.969Z,1010.81
2019-01-11T03:15:41.991Z,1010.82
2019-01-11T03:16:42.012Z,1010.75
2019-01-11T03:17:42.036Z,1010.75
2019-01-11T03:18:42.056Z,1010.69
2019-01-11T03:19:47.740Z,1010.69
2019-01-11T03:20:42.101Z,1010.63
2019-01-11T03:21:42.121Z,1010.61
2019-01-11T03:22:42.142Z,1010.57
2019-01-11T03:23:42.164Z,1010.56
2019-01-11T03:24:42.183Z,1010.56
2019-01-11T03:25:42.207Z,1010.54
2019-01-11T03:26:42.222Z,1010.49
2019-01-11T03:27:42.246Z,1010.47
2019-01-11T03:28:42.265Z,1010.54
2019-01-11T03:29:42.286Z,1010.52
2019-01-11T03:30:42.309Z,1010.51
2019-01-11T03:31:42.333Z,1010.45
2019-01-11T03:32:42.365Z,1010.38
2019-01-11T03:33:42.373Z,1010.39
2019-01-11T03:34:42.390Z,1010.36
2019-01-11T03:35:42.412Z,1010.38
2019-01-11T03:36:42.433Z,1010.28
2019-01-11T03:37:42.456Z,1010.31
2019-01-11T03:38:42.475Z,1010.31
2019-01-11T03:39:42.509Z,1010.25
2019-01-11T03:40:42.521Z,1010.30
2019-01-11T03:41:42.539Z,1010.27
2019-01-11T03:42:42.565Z,1010.28
2019-01-11T03:43:42.580Z,1010.31
2019-01-11T03:44:42.607Z,1010.29
2019-01-11T03:45:42.631Z,1010.25
2019-01-11T03:46:42.644Z,1010.20
2019-01-11T03:47:42.665Z,1010.21
2019-01-11T03:48:42.757Z,1010.18
2019-01-11T03:49:42.710Z,1010.15
2019-01-11T03:50:42.727Z,1010.04
2019-01-11T03:51:42.750Z,1010.06
2019-01-11T03:52:42.777Z,1009.99
2019-01-11T03:53:42.795Z,1010.01
2019-01-11T03:54:42.813Z,1010.05
2019-01-11T03:55:42.836Z,1009.96
2019-01-11T03:56:42.855Z,1010.01
2019-01-11T03:57:42.882Z,1009.97
2019-01-11T03:58:42.898Z,1009.93
2019-01-11T03:59:42.924Z,1009.89
2019-01-11T04:00:42.940Z,1009.78
2019-01-11T04:01:42.961Z,1009.79
2019-01-11T04:02:42.981Z,1009.80
2019-01-11T04:03:43.001Z,1009.73
2019-01-11T04:04:43.025Z,1009.72
2019-01-11T04:05:43.046Z,1009.74
2019-01-11T04:06:43.066Z,1009.67
2019-01-11T04:07:43.087Z,1009.72
2019-01-11T04:08:43.110Z,1009.66
2019-01-11T04:09:43.129Z,1009.60
2019-01-11T04:10:43.153Z,1009.61
2019-01-11T04:11:43.172Z,1009.51
2019-01-11T04:12:43.196Z,1009.53
2019-01-11T04:13:43.214Z,1009.54
2019-01-11T04:14:43.234Z,1009.49
2019-01-11T04:15:43.258Z,1009.39
2019-01-11T04:16:43.278Z,1009.43
2019-01-11T04:17:43.303Z,1009.37
2019-01-11T04:18:43.322Z,1009.32
2019-01-11T04:19:43.343Z,1009.30
2019-01-11T04:20:43.367Z,1009.34
2019-01-11T04:21:43.384Z,1009.19
2019-01-11T04:22:43.405Z,1009.12
2019-01-11T04:23:43.430Z,1009.15
2019-01-11T04:24:43.446Z,1009.13
2019-01-11T04:25:43.473Z,1009.09
2019-01-11T04:26:43.489Z,1009.12
2019-01-11T04:27:43.553Z,1009.05
2019-01-11T04:28:43.532Z,1009.01
2019-01-11T04:29:43.552Z,1008.94
2019-01-11T04:30:43.573Z,1008.92
2019-01-11T04:31:43.594Z,1008.89
2019-01-11T04:32:43.618Z,1008.78
2019-01-11T04:33:43.642Z,1008.76
2019-01-11T04:34:43.660Z,1008.83
2019-01-11T04:35:43.682Z,1008.73
2019-01-11T04:36:43.703Z,1008.74
2019-01-11T04:37:43.726Z,1008.75
2019-01-11T04:38:43.749Z,1008.68
2019-01-11T04:39:43.775Z,1008.76
2019-01-11T04:40:43.791Z,1008.61
2019-01-11T04:41:43.813Z,1008.54
2019-01-11T04:42:43.831Z,1008.55
2019-01-11T04:43:43.851Z,1008.51
2019-01-11T04:44:43.873Z,1008.47
2019-01-11T04:45:43.896Z,1008.42
2019-01-11T04:46:43.914Z,1008.40
2019-01-11T04:47:43.942Z,1008.34
2019-01-11T04:48:43.957Z,1008.30
2019-01-11T04:49:43.978Z,1008.29
2019-01-11T04:50:44.000Z,1008.24
2019-01-11T04:51:44.025Z,1008.17
2019-01-11T04:52:44.041Z,1008.10
2019-01-11T04:53:44.064Z,1008.15
2019-01-11T04:54:44.083Z,1008.15
2019-01-11T04:55:44.105Z,1008.21
2019-01-11T04:56:44.129Z,1008.07
2019-01-11T04:57:44.157Z,1008.07
2019-01-11T04:58:44.172Z,1008.06
2019-01-11T04:59:44.193Z,1008.06
2019-01-11T05:00:44.212Z,1008.05
2019-01-11T05:01:44.236Z,1008.06
2019-01-11T05:02:44.261Z,1008.00
2019-01-11T05:03:44.276Z,1007.96
2019-01-11T05:04:44.297Z,1007.90
2019-01-11T05:05:44.323Z,1007.83
2019-01-11T05:06:44.343Z,1007.80
2019-01-11T05:07:44.364Z,1007.71
2019-01-11T05:08:44.387Z,1007.73
2019-01-11T05:09:44.404Z,1007.70
2019-01-11T05:10:44.426Z,1007.75
2019-01-11T05:11:44.448Z,1007.68
2019-01-11T05:12:44.468Z,1007.66
2019-01-11T05:13:44.490Z,1007.49
2019-01-11T05:14:44.510Z,1007.53
2019-01-11T05:15:44.533Z,1007.54
2019-01-11T05:16:44.557Z,1007.57
2019-01-11T05:17:44.579Z,1007.55
2019-01-11T05:18:44.598Z,1007.55
2019-01-11T05:19:44.622Z,1007.50
2019-01-11T05:20:44.642Z,1007.49
2019-01-11T05:21:44.670Z,1007.43
2019-01-11T05:22:44.682Z,1007.37
2019-01-11T05:23:44.702Z,1007.41
2019-01-11T05:24:44.726Z,1007.41
2019-01-11T05:25:44.750Z,1007.37
2019-01-11T05:26:44.768Z,1007.41
2019-01-11T05:27:44.788Z,1007.34
2019-01-11T05:28:44.812Z,1007.31
2019-01-11T05:29:44.833Z,1007.25
2019-01-11T05:30:44.853Z,1007.32
2019-01-11T05:31:44.877Z,1007.25
2019-01-11T05:32:44.897Z,1007.25
2019-01-11T05:33:44.920Z,1007.24
2019-01-11T05:34:44.938Z,1007.20
2019-01-11T05:35:44.960Z,1007.13
2019-01-11T05:36:44.981Z,1007.12
2019-01-11T05:37:45.001Z,1007.16
2019-01-11T05:38:45.027Z,1007.05
2019-01-11T05:39:45.048Z,1007.05
2019-01-11T05:40:45.066Z,1006.96
2019-01-11T05:41:45.089Z,1006.95
2019-01-11T05:42:45.116Z,1007.00
2019-01-11T05:43:45.132Z,1006.87
2019-01-11T05:44:45.154Z,1006.90
2019-01-11T05:45:45.174Z,1006.87
2019-01-11T05:46:45.194Z,1006.83
2019-01-11T05:47:45.221Z,1006.80
2019-01-11T05:48:45.238Z,1006.81
2019-01-11T05:49:45.259Z,1006.82
2019-01-11T05:50:45.285Z,1006.69
2019-01-11T05:51:45.302Z,1006.67
2019-01-11T05:52:45.323Z,1006.66
2019-01-11T05:53:45.344Z,1006.64
2019-01-11T05:54:45.367Z,1006.69
2019-01-11T05:55:45.393Z,1006.57
2019-01-11T05:56:45.413Z,1006.59
2019-01-11T05:57:45.431Z,1006.52
2019-01-11T05:58:45.451Z,1006.58
2019-01-11T05:59:45.473Z,1006.46
2019-01-11T06:00:45.496Z,1006.59
2019-01-11T06:01:45.515Z,1006.45
2019-01-11T06:02:45.539Z,1006.46
2019-01-11T06:03:45.558Z,1006.45
2019-01-11T06:04:45.585Z,1006.44
2019-01-11T06:05:45.610Z,1006.44
2019-01-11T06:06:45.625Z,1006.39
2019-01-11T06:07:45.653Z,1006.46
2019-01-11T06:08:45.669Z,1006.39
2019-01-11T06:09:45.690Z,1006.47
2019-01-11T06:10:45.707Z,1006.38
2019-01-11T06:11:45.729Z,1006.33
2019-01-11T06:12:45.752Z,1006.34
2019-01-11T06:13:45.772Z,1006.29
2019-01-11T06:14:45.793Z,1006.41
2019-01-11T06:15:45.816Z,1006.25
2019-01-11T06:16:45.838Z,1006.24
2019-01-11T06:17:45.859Z,1006.21
2019-01-11T06:18:45.880Z,1006.17
2019-01-11T06:19:45.903Z,1006.14
2019-01-11T06:20:45.922Z,1006.16
2019-01-11T06:21:45.946Z,1006.14
2019-01-11T06:22:45.964Z,1006.13
2019-01-11T06:23:45.987Z,1006.11
2019-01-11T06:24:46.006Z,1006.11
2019-01-11T06:25:46.032Z,1006.08
2019-01-11T06:26:46.050Z,1005.97
2019-01-11T06:27:46.071Z,1005.97
2019-01-11T06:28:46.093Z,1005.94
2019-01-11T06:29:46.116Z,1005.93
2019-01-11T06:30:46.135Z,1005.87
2019-01-11T06:31:46.157Z,1005.81
2019-01-11T06:32:46.181Z,1005.75
2019-01-11T06:33:46.200Z,1005.76
2019-01-11T06:34:46.238Z,1005.75
2019-01-11T06:35:46.243Z,1005.64
2019-01-11T06:36:46.265Z,1005.68
2019-01-11T06:37:46.287Z,1005.65
2019-01-11T06:38:46.311Z,1005.59
2019-01-11T06:39:46.328Z,1005.63
2019-01-11T06:40:46.353Z,1005.55
2019-01-11T06:41:46.375Z,1005.52
2019-01-11T06:42:46.393Z,1005.42
2019-01-11T06:43:46.415Z,1005.35
2019-01-11T06:44:46.441Z,1005.36
2019-01-11T06:45:46.462Z,1005.35
2019-01-11T06:46:46.488Z,1005.35
2019-01-11T06:47:46.501Z,1005.28
2019-01-11T06:48:46.524Z,1005.29
2019-01-11T06:49:46.557Z,1005.25
2019-01-11T06:50:46.566Z,1005.20
2019-01-11T06:51:46.588Z,1005.23
2019-01-11T06:52:46.619Z,1005.16
2019-01-11T06:53:46.632Z,1005.19
2019-01-11T06:54:46.654Z,1005.15
2019-01-11T06:55:46.675Z,1005.19
2019-01-11T06:56:46.700Z,1005.05
2019-01-11T06:57:46.721Z,1005.05
2019-01-11T06:58:46.740Z,1005.05
2019-01-11T06:59:46.761Z,1005.02
2019-01-11T07:00:46.789Z,1005.00
2019-01-11T07:01:46.804Z,1004.94
2019-01-11T07:02:46.831Z,1004.92
2019-01-11T07:03:46.851Z,1004.86
2019-01-11T07:04:46.871Z,1004.86
2019-01-11T07:05:46.891Z,1004.82
2019-01-11T07:06:46.913Z,1004.81
2019-01-11T07:07:46.935Z,1004.78
2019-01-11T07:08:46.956Z,1004.79
2019-01-11T07:09:46.988Z,1004.77
2019-01-11T07:10:46.998Z,1004.76
2019-01-11T07:11:47.022Z,1004.72
2019-01-11T07:12:47.050Z,1004.59
2019-01-11T07:13:47.064Z,1004.70
2019-01-11T07:14:47.085Z,1004.68
2019-01-11T07:15:47.109Z,1004.69
2019-01-11T07:16:47.129Z,1004.63
2019-01-11T07:17:47.154Z,1004.69
2019-01-11T07:18:47.176Z,1004.64
2019-01-11T07:19:47.203Z,1004.53
2019-01-11T07:20:47.221Z,1004.67
2019-01-11T07:21:47.239Z,1004.61
2019-01-11T07:22:47.260Z,1004.55
2019-01-11T07:23:47.284Z,1004.54
2019-01-11T07:24:47.312Z,1004.58
2019-01-11T07:25:47.774Z,1004.55
2019-01-11T07:26:47.347Z,1004.60
2019-01-11T07:27:47.368Z,1004.56
2019-01-11T07:28:47.392Z,1004.51
2019-01-11T07:29:47.413Z,1004.56
2019-01-11T07:30:47.436Z,1004.45
2019-01-11T07:31:47.456Z,1004.53
2019-01-11T07:32:47.477Z,1004.53
2019-01-11T07:33:47.503Z,1004.55
2019-01-11T07:34:47.522Z,1004.55
2019-01-11T07:35:47.546Z,1004.54
2019-01-11T07:36:47.566Z,1004.56
2019-01-11T07:37:47.587Z,1004.55
2019-01-11T07:38:47.608Z,1004.57
2019-01-11T07:39:47.635Z,1004.52
2019-01-11T07:40:47.654Z,1004.53
2019-01-11T07:41:47.680Z,1004.53
2019-01-11T07:42:47.701Z,1004.52
2019-01-11T07:43:47.720Z,1004.60
2019-01-11T07:44:47.741Z,1004.51
2019-01-11T07:45:47.763Z,1004.53
2019-01-11T07:46:47.784Z,1004.52
2019-01-11T07:47:47.808Z,1004.59
2019-01-11T07:48:47.832Z,1004.48
2019-01-11T07:49:47.853Z,1004.55
2019-01-11T07:50:49.443Z,1004.56
2019-01-11T07:51:47.895Z,1004.42
2019-01-11T07:52:47.921Z,1004.52
2019-01-11T07:53:47.946Z,1004.46
2019-01-11T07:54:47.961Z,1004.40
2019-01-11T07:55:47.983Z,1004.48
2019-01-11T07:56:48.016Z,1004.45
2019-01-11T07:57:48.027Z,1004.30
2019-01-11T07:58:48.050Z,1004.36
2019-01-11T07:59:48.075Z,1004.30
2019-01-11T08:00:48.097Z,1004.28
2019-01-11T08:01:48.115Z,1004.26
2019-01-11T08:02:48.139Z,1004.24
2019-01-11T08:03:48.161Z,1004.25
2019-01-11T08:04:48.182Z,1004.28
2019-01-11T08:05:48.205Z,1004.22
2019-01-11T08:06:48.226Z,1004.23
2019-01-11T08:07:48.249Z,1004.22
2019-01-11T08:08:48.271Z,1004.23
2019-01-11T08:09:48.293Z,1004.15
2019-01-11T08:10:48.316Z,1004.14
2019-01-11T08:11:48.337Z,1004.15
2019-01-11T08:12:48.362Z,1004.12
2019-01-11T08:13:48.384Z,1004.13
2019-01-11T08:14:48.404Z,1004.05
2019-01-11T08:15:48.429Z,1004.00
2019-01-11T08:16:48.448Z,1004.02
2019-01-11T08:17:48.474Z,1003.93
2019-01-11T08:18:48.492Z,1003.92
2019-01-11T08:19:48.518Z,1003.93
2019-01-11T08:20:48.538Z,1003.91
2019-01-11T08:21:48.561Z,1003.85
2019-01-11T08:22:48.583Z,1003.79
2019-01-11T08:23:48.606Z,1003.74
2019-01-11T08:24:48.632Z,1003.72
2019-01-11T08:25:48.650Z,1003.74
2019-01-11T08:26:48.679Z,1003.71
2019-01-11T08:27:48.694Z,1003.65
2019-01-11T08:28:48.717Z,1003.61
2019-01-11T08:29:48.739Z,1003.54
2019-01-11T08:30:48.762Z,1003.56
2019-01-11T08:31:48.786Z,1003.47
2019-01-11T08:32:48.808Z,1003.44
2019-01-11T08:33:48.830Z,1003.42
2019-01-11T08:34:48.852Z,1003.38
2019-01-11T08:35:48.876Z,1003.33
2019-01-11T08:36:48.897Z,1003.35
2019-01-11T08:37:48.918Z,1003.28
2019-01-11T08:38:48.942Z,1003.31
2019-01-11T08:39:48.965Z,1003.28
2019-01-11T08:40:48.988Z,1003.26
2019-01-11T08:41:49.010Z,1003.19
2019-01-11T08:42:49.032Z,1003.18
2019-01-11T08:43:49.054Z,1003.14
2019-01-11T08:44:49.076Z,1003.24
2019-01-11T08:45:49.103Z,1003.17
2019-01-11T08:46:49.123Z,1003.21
2019-01-11T08:47:49.147Z,1003.17
2019-01-11T08:48:49.173Z,1003.16
2019-01-11T08:49:49.191Z,1003.13
2019-01-11T08:50:49.213Z,1003.07
2019-01-11T08:51:49.236Z,1003.07
2019-01-11T08:52:49.266Z,1003.09
2019-01-11T08:53:49.286Z,1002.96
2019-01-11T08:54:49.302Z,1002.91
2019-01-11T08:55:49.330Z,1002.98
2019-01-11T08:56:49.348Z,1002.85
2019-01-11T08:57:49.380Z,1002.87
2019-01-11T08:58:50.684Z,1002.87
2019-01-11T08:59:49.417Z,1002.80
2019-01-11T09:00:49.441Z,1002.81
2019-01-11T09:01:49.464Z,1002.76
2019-01-11T09:02:49.486Z,1002.75
2019-01-11T09:03:49.508Z,1002.74
2019-01-11T09:04:49.531Z,1002.79
2019-01-11T09:05:49.555Z,1002.74
2019-01-11T09:06:49.576Z,1002.80
2019-01-11T09:07:49.622Z,1002.73
2019-01-11T09:08:49.623Z,1002.71
2019-01-11T09:09:49.646Z,1002.65
2019-01-11T09:10:49.673Z,1002.59
2019-01-11T09:11:49.693Z,1002.49
2019-01-11T09:12:49.717Z,1002.40
2019-01-11T09:13:49.737Z,1002.43
2019-01-11T09:14:49.762Z,1002.40
2019-01-11T09:15:49.786Z,1002.39
2019-01-11T09:16:49.809Z,1002.37
2019-01-11T09:17:49.828Z,1002.39
2019-01-11T09:18:49.849Z,1002.34
2019-01-11T09:19:49.875Z,1002.34
2019-01-11T09:20:49.899Z,1002.32
2019-01-11T09:21:49.920Z,1002.12
2019-01-11T09:22:49.943Z,1002.33
2019-01-11T09:23:49.966Z,1002.22
2019-01-11T09:24:49.989Z,1002.28
2019-01-11T09:25:50.013Z,1002.20
2019-01-11T09:26:50.037Z,1002.16
2019-01-11T09:27:50.058Z,1002.16
2019-01-11T09:28:50.084Z,1002.16
2019-01-11T09:29:50.105Z,1002.14
2019-01-11T09:30:50.127Z,1002.14
2019-01-11T09:31:50.153Z,1002.13
2019-01-11T09:32:50.174Z,1002.06
2019-01-11T09:33:50.199Z,1002.05
2019-01-11T09:34:50.222Z,1002.07
2019-01-11T09:35:50.248Z,1002.04
2019-01-11T09:36:50.277Z,1001.99
2019-01-11T09:37:50.292Z,1002.05
2019-01-11T09:38:50.314Z,1002.02
2019-01-11T09:39:50.341Z,1002.08
2019-01-11T09:40:50.364Z,1002.02
2019-01-11T09:41:50.382Z,1002.03
2019-01-11T09:42:50.407Z,1002.02
2019-01-11T09:43:50.431Z,1002.01
2019-01-11T09:44:50.453Z,1002.02
2019-01-11T09:45:50.476Z,1002.05
2019-01-11T09:46:50.498Z,1002.06
2019-01-11T09:47:50.524Z,1002.01
2019-01-11T09:48:50.545Z,1002.10
2019-01-11T09:49:50.570Z,1002.09
2019-01-11T09:50:50.595Z,1002.09
2019-01-11T09:51:50.617Z,1002.09
2019-01-11T09:52:50.643Z,1002.12
2019-01-11T09:53:50.664Z,1002.09
2019-01-11T09:54:50.689Z,1002.18
2019-01-11T09:55:50.710Z,1002.11
2019-01-11T09:56:50.734Z,1002.11
2019-01-11T09:57:50.756Z,1002.10
2019-01-11T09:58:50.780Z,1002.06
2019-01-11T09:59:50.804Z,1002.16
2019-01-11T10:00:50.827Z,1002.18
2019-01-11T10:01:50.851Z,1002.19
2019-01-11T10:02:50.874Z,1002.12
2019-01-11T10:03:50.897Z,1002.10
2019-01-11T10:04:50.928Z,1002.10
2019-01-11T10:05:50.948Z,1002.08
2019-01-11T10:06:50.968Z,1002.15
2019-01-11T10:07:50.992Z,1002.09
2019-01-11T10:08:51.016Z,1002.04
2019-01-11T10:09:51.040Z,1002.09
2019-01-11T10:10:51.062Z,1002.09
2019-01-11T10:11:51.086Z,1002.12
2019-01-11T10:12:51.110Z,1002.13
2019-01-11T10:13:51.135Z,1002.05
2019-01-11T10:14:51.157Z,1002.07
2019-01-11T10:15:51.182Z,1002.13
2019-01-11T10:16:51.237Z,1002.07
2019-01-11T10:17:51.227Z,1001.98
2019-01-11T10:18:51.260Z,1002.06
2019-01-11T10:19:51.275Z,1002.05
2019-01-11T10:20:51.299Z,1001.98
2019-01-11T10:21:52.535Z,1002.05
2019-01-11T10:22:51.344Z,1002.00
2019-01-11T10:23:51.369Z,1001.98
2019-01-11T10:24:51.393Z,1001.94
2019-01-11T10:25:51.416Z,1001.92
2019-01-11T10:26:51.452Z,1001.96
2019-01-11T10:27:51.467Z,1001.87
2019-01-11T10:28:51.487Z,1001.87
2019-01-11T10:29:51.510Z,1001.85
2019-01-11T10:30:51.536Z,1001.84
2019-01-11T10:31:51.555Z,1001.86
2019-01-11T10:32:51.578Z,1001.87
2019-01-11T10:33:51.602Z,1001.87
2019-01-11T10:34:51.625Z,1001.84
2019-01-11T10:35:51.650Z,1001.81
2019-01-11T10:36:51.672Z,1001.77
2019-01-11T10:37:51.699Z,1001.79
2019-01-11T10:38:51.718Z,1001.79
2019-01-11T10:39:51.745Z,1001.76
2019-01-11T10:40:51.768Z,1001.66
2019-01-11T10:41:51.791Z,1001.70
2019-01-11T10:42:51.814Z,1001.67
2019-01-11T10:43:51.837Z,1001.63
2019-01-11T10:44:51.861Z,1001.59
2019-01-11T10:45:51.886Z,1001.61
2019-01-11T10:46:51.909Z,1001.55
2019-01-11T10:47:51.934Z,1001.54
2019-01-11T10:48:51.954Z,1001.51
2019-01-11T10:49:51.979Z,1001.54
2019-01-11T10:50:52.001Z,1001.58
2019-01-11T10:51:52.027Z,1001.56
2019-01-11T10:52:52.049Z,1001.56
2019-01-11T10:53:52.072Z,1001.58
2019-01-11T10:54:52.097Z,1001.55
2019-01-11T10:55:52.118Z,1001.56
2019-01-11T10:56:52.143Z,1001.55
2019-01-11T10:57:52.173Z,1001.58
2019-01-11T10:58:52.192Z,1001.56
2019-01-11T10:59:52.216Z,1001.52
2019-01-11T11:00:52.242Z,1001.48
2019-01-11T11:01:52.261Z,1001.49
2019-01-11T11:02:52.290Z,1001.50
2019-01-11T11:03:52.307Z,1001.50
2019-01-11T11:04:52.331Z,1001.47
2019-01-11T11:05:52.400Z,1001.49
2019-01-11T11:06:52.378Z,1001.44
2019-01-11T11:07:52.402Z,1001.41
2019-01-11T11:08:52.425Z,1001.40
2019-01-11T11:09:52.453Z,1001.36
2019-01-11T11:10:52.476Z,1001.30
2019-01-11T11:11:52.498Z,1001.28
2019-01-11T11:12:52.522Z,1001.25
2019-01-11T11:13:52.547Z,1001.26
2019-01-11T11:14:52.566Z,1001.25
2019-01-11T11:15:52.590Z,1001.25
2019-01-11T11:16:52.613Z,1001.15
2019-01-11T11:17:52.640Z,1001.17
2019-01-11T11:18:52.670Z,1001.16
2019-01-11T11:19:52.689Z,1001.11
2019-01-11T11:20:52.712Z,1001.11
2019-01-11T11:21:52.737Z,1001.08
2019-01-11T11:22:52.759Z,1001.09
2019-01-11T11:23:54.048Z,1001.02
2019-01-11T11:24:52.808Z,1001.04
2019-01-11T11:25:52.827Z,1001.03
2019-01-11T11:26:52.854Z,1001.01
2019-01-11T11:27:52.877Z,1001.02
2019-01-11T11:28:52.899Z,1001.00
2019-01-11T11:29:52.966Z,1000.95
2019-01-11T11:30:52.959Z,1000.98
2019-01-11T11:31:52.969Z,1000.93
2019-01-11T11:32:52.995Z,1000.97
2019-01-11T11:33:53.017Z,1000.97
2019-01-11T11:34:53.042Z,1000.94
2019-01-11T11:35:53.065Z,1000.97
2019-01-11T11:36:53.087Z,1000.93
2019-01-11T11:37:53.111Z,1000.97
2019-01-11T11:38:53.134Z,1000.96
2019-01-11T11:39:53.156Z,1000.94
2019-01-11T11:40:53.185Z,1000.96
2019-01-11T11:41:53.205Z,1000.95
2019-01-11T11:42:53.233Z,1000.95
2019-01-11T11:43:53.252Z,1000.96
2019-01-11T11:44:53.274Z,1000.97
2019-01-11T11:45:53.312Z,1000.99
2019-01-11T11:46:53.323Z,1000.94
2019-01-11T11:47:53.349Z,1000.95
2019-01-11T11:48:53.373Z,1000.91
2019-01-11T11:49:53.394Z,1000.95
2019-01-11T11:50:53.417Z,1000.93
2019-01-11T11:51:53.440Z,1000.96
2019-01-11T11:52:53.464Z,1000.94
2019-01-11T11:53:53.494Z,1000.96
2019-01-11T11:54:53.511Z,1000.96
2019-01-11T11:55:53.534Z,1000.93
2019-01-11T11:56:53.558Z,1000.96
2019-01-11T11:57:53.582Z,1000.97
2019-01-11T11:58:53.606Z,1000.95
2019-01-11T11:59:53.635Z,1000.92
2019-01-11T12:00:53.654Z,1000.88
2019-01-11T12:01:53.679Z,1000.88
2019-01-11T12:02:53.699Z,1000.86
2019-01-11T12:03:53.723Z,1000.85
2019-01-11T12:04:53.747Z,1000.84
2019-01-11T12:05:53.770Z,1000.90